Mount Olive, North Carolina
Current Conditions -  °F | °C
As of 4:37 AM on Monday 24 Nov 2014 (Local Time) from KGSB Reporting Station
Broken Clouds Broken Clouds  
Wind Chill: 66°   Ceiling: 3500
Heat Index: 66°   Visibility: 10mi
Dew Point: 66°   Wind: 5mph
Humidity: 100%   Direction: 200°SSW
Pressure: 29.79"   Gusts: NA
Location:  35.2°N, 78.07°W
Report Text: KGSB 240937Z AUTO 20004KT 10SM SCT025 BKN035 19/19 A2979 RMK AO2
Loading
Personal Weather Stations






























Interactive Weather Map New forecast layout! Learn more

10-Day Weather Forecast

Advertisements
Track Severe Weather on mobile